Time;durP1;ratioP1;P1;durP2;ratioP2;P2;SDS_P1;SDS_P2;PMS_P1;PMS_P2;Temp;Humidity;BMP_temperature;BMP_pressure;BME280_temperature;BME280_humidity;BME280_pressure;Samples;Min_cycle;Max_cycle;Signal;HPM_P1;HPM_P2
2023/03/19 00:00:53;;;;;;;3.90;3.60;;;21.20;47.60;;;;;;4958751;28;20448;-82
2023/03/19 00:03:20;;;;;;;4.33;4.07;;;21.20;47.60;;;;;;4951659;28;20477;-82
2023/03/19 00:05:52;;;;;;;4.50;4.10;;;21.20;47.60;;;;;;4955471;29;20475;-82
2023/03/19 00:08:21;;;;;;;4.70;4.30;;;21.20;47.60;;;;;;4955278;29;20466;-83
2023/03/19 00:10:50;;;;;;;4.10;3.80;;;21.10;47.50;;;;;;4956969;28;20566;-83
2023/03/19 00:13:19;;;;;;;4.50;4.10;;;21.10;47.50;;;;;;4953058;28;20442;-83
2023/03/19 00:15:47;;;;;;;4.20;3.90;;;21.10;47.40;;;;;;4948529;29;20474;-82
2023/03/19 00:18:14;;;;;;;3.90;3.60;;;21.10;47.50;;;;;;4962195;28;20538;-82
2023/03/19 00:20:43;;;;;;;4.20;3.90;;;21.10;47.60;;;;;;4958502;28;20451;-81
2023/03/19 00:23:11;;;;;;;4.63;4.20;;;21.00;47.50;;;;;;4959010;28;20435;-82
2023/03/19 00:25:39;;;;;;;4.33;4.03;;;21.00;47.50;;;;;;4959629;28;20463;-81
2023/03/19 00:28:08;;;;;;;4.40;4.10;;;21.00;47.50;;;;;;4958488;29;20475;-82
2023/03/19 00:30:37;;;;;;;4.67;4.27;;;21.00;47.40;;;;;;4960209;29;20451;-83
2023/03/19 00:33:05;;;;;;;4.00;3.70;;;21.00;47.40;;;;;;4949862;28;20452;-82
2023/03/19 00:35:33;;;;;;;3.73;3.53;;;21.00;47.40;;;;;;4953567;28;20522;-83
2023/03/19 00:38:02;;;;;;;4.10;3.80;;;21.00;47.50;;;;;;4953375;28;20451;-82
2023/03/19 00:40:30;;;;;;;4.00;3.70;;;20.90;47.40;;;;;;4950466;28;20440;-82
2023/03/19 00:42:58;;;;;;;4.57;4.23;;;20.90;47.40;;;;;;4959015;28;20465;-82
2023/03/19 00:45:26;;;;;;;3.83;3.47;;;20.90;47.40;;;;;;4954235;28;20443;-83
2023/03/19 00:47:56;;;;;;;4.37;4.07;;;20.90;47.50;;;;;;4962634;28;20453;-82
2023/03/19 00:50:25;;;;;;;4.00;3.70;;;20.80;47.40;;;;;;4946016;28;20467;-80
2023/03/19 00:52:53;;;;;;;4.10;3.70;;;20.80;47.40;;;;;;4955139;28;20451;-83
2023/03/19 00:55:21;;;;;;;3.63;3.33;;;20.80;47.50;;;;;;4961164;28;20477;-82
2023/03/19 00:57:49;;;;;;;3.80;3.60;;;20.80;47.40;;;;;;4957602;28;20472;-82
2023/03/19 01:00:18;;;;;;;3.33;3.13;;;20.80;47.40;;;;;;4952724;29;20461;-82
2023/03/19 01:02:46;;;;;;;3.60;3.30;;;20.80;47.40;;;;;;4958142;29;20463;-82
2023/03/19 01:05:15;;;;;;;4.10;3.70;;;20.80;47.30;;;;;;4958004;28;20461;-82
2023/03/19 01:07:43;;;;;;;3.90;3.60;;;20.80;47.40;;;;;;4959900;28;20488;-82
2023/03/19 01:10:11;;;;;;;3.60;3.30;;;20.70;47.30;;;;;;4953116;28;20462;-82
2023/03/19 01:12:39;;;;;;;3.63;3.30;;;20.70;47.40;;;;;;4961070;28;20465;-82
2023/03/19 01:15:08;;;;;;;3.33;3.10;;;20.70;47.30;;;;;;4953064;28;20470;-82
2023/03/19 01:17:37;;;;;;;4.17;3.77;;;20.70;47.40;;;;;;4960615;28;20509;-82
2023/03/19 01:20:07;;;;;;;3.53;3.33;;;20.70;47.40;;;;;;4966694;28;20461;-82
2023/03/19 01:22:37;;;;;;;3.33;3.17;;;20.70;47.40;;;;;;4959131;29;20473;-82
2023/03/19 01:25:06;;;;;;;3.20;3.00;;;20.70;47.40;;;;;;4962810;28;20459;-82
2023/03/19 01:27:34;;;;;;;3.57;3.30;;;20.70;47.40;;;;;;4962973;28;20557;-82
2023/03/19 01:30:02;;;;;;;3.00;2.70;;;20.70;47.40;;;;;;4961307;28;20449;-82
2023/03/19 01:32:30;;;;;;;2.93;2.73;;;20.70;47.30;;;;;;4956411;29;20450;-82
2023/03/19 01:34:58;;;;;;;3.17;2.97;;;20.70;47.40;;;;;;4957343;28;20472;-83
2023/03/19 01:37:27;;;;;;;3.47;3.27;;;20.60;47.40;;;;;;4955866;29;20471;-82
2023/03/19 01:39:56;;;;;;;3.20;3.00;;;20.70;47.40;;;;;;4960845;28;20458;-83
2023/03/19 01:42:24;;;;;;;3.37;3.17;;;20.70;47.40;;;;;;4958005;28;20446;-83
2023/03/19 01:44:52;;;;;;;3.00;2.80;;;20.60;47.30;;;;;;4964033;28;20439;-82
2023/03/19 01:47:26;;;;;;;3.10;2.90;;;20.60;47.30;;;;;;4963677;28;20471;-83
2023/03/19 01:49:54;;;;;;;2.93;2.80;;;20.60;47.30;;;;;;4961031;28;20461;-83
2023/03/19 01:52:22;;;;;;;3.23;3.03;;;20.60;47.20;;;;;;4958006;28;20454;-83
2023/03/19 01:54:50;;;;;;;3.20;2.97;;;20.60;47.20;;;;;;4962164;29;20467;-83
2023/03/19 01:57:20;;;;;;;3.30;3.10;;;20.60;47.20;;;;;;4961329;28;20471;-82
2023/03/19 01:59:48;;;;;;;3.07;2.87;;;20.60;47.30;;;;;;4962053;28;20459;-82
2023/03/19 02:02:18;;;;;;;3.10;2.90;;;20.60;47.20;;;;;;4962206;28;20519;-82
2023/03/19 02:04:46;;;;;;;3.63;3.20;;;20.60;47.20;;;;;;4961573;28;20465;-81
2023/03/19 02:07:14;;;;;;;3.47;3.17;;;20.60;47.20;;;;;;4963717;28;20529;-82
2023/03/19 02:09:42;;;;;;;2.90;2.70;;;20.60;47.40;;;;;;4952663;28;20514;-82
2023/03/19 02:12:11;;;;;;;3.30;3.00;;;20.60;47.20;;;;;;4956662;29;20603;-82
2023/03/19 02:14:40;;;;;;;2.70;2.50;;;20.60;47.30;;;;;;4962330;29;20555;-83
2023/03/19 02:17:09;;;;;;;2.87;2.67;;;20.50;47.20;;;;;;4958245;28;20480;-82
2023/03/19 02:19:40;;;;;;;2.90;2.73;;;20.50;47.30;;;;;;4962574;29;20469;-83
2023/03/19 02:22:08;;;;;;;2.77;2.67;;;20.50;47.30;;;;;;4964272;28;20553;-83
2023/03/19 02:24:37;;;;;;;2.70;2.40;;;20.50;47.30;;;;;;4964096;28;20467;-83
2023/03/19 02:27:08;;;;;;;3.10;2.90;;;20.50;47.30;;;;;;4959864;28;20471;-82
2023/03/19 02:29:36;;;;;;;2.63;2.53;;;20.60;47.40;;;;;;4962292;28;20464;-82
2023/03/19 02:32:04;;;;;;;2.43;2.33;;;20.50;47.20;;;;;;4956380;29;20519;-83
2023/03/19 02:34:35;;;;;;;2.70;2.60;;;20.50;47.10;;;;;;4961222;29;20469;-82
2023/03/19 02:37:05;;;;;;;3.23;3.00;;;20.50;47.30;;;;;;4964395;28;20485;-83
2023/03/19 02:39:36;;;;;;;2.67;2.47;;;20.50;47.30;;;;;;4961246;28;20463;-83
2023/03/19 02:42:04;;;;;;;2.60;2.50;;;20.50;47.30;;;;;;4963088;29;20467;-82
2023/03/19 02:44:34;;;;;;;3.03;2.83;;;20.50;47.30;;;;;;4961407;28;20463;-82
2023/03/19 02:47:02;;;;;;;2.77;2.67;;;20.50;47.20;;;;;;4956602;28;21019;-82
2023/03/19 02:49:30;;;;;;;2.10;2.00;;;20.50;47.40;;;;;;4959121;28;20455;-83
2023/03/19 02:51:58;;;;;;;2.77;2.57;;;20.50;47.30;;;;;;4958791;28;20463;-83
2023/03/19 02:54:26;;;;;;;3.17;2.97;;;20.50;47.40;;;;;;4956057;29;20454;-82
2023/03/19 02:56:54;;;;;;;2.80;2.70;;;20.50;47.30;;;;;;4955459;28;20475;-82
2023/03/19 02:59:22;;;;;;;2.77;2.57;;;20.50;47.30;;;;;;4958965;29;20508;-82
2023/03/19 03:01:52;;;;;;;2.50;2.40;;;20.50;47.30;;;;;;4960598;29;20451;-82
2023/03/19 03:04:20;;;;;;;2.90;2.70;;;20.50;47.40;;;;;;4958245;28;20466;-82
2023/03/19 03:06:48;;;;;;;3.07;2.87;;;20.40;47.30;;;;;;4956100;29;20479;-82
2023/03/19 03:09:17;;;;;;;2.70;2.50;;;20.40;47.30;;;;;;4960222;28;20456;-82
2023/03/19 03:11:44;;;;;;;2.67;2.57;;;20.40;47.50;;;;;;4957912;28;20447;-82
2023/03/19 03:14:12;;;;;;;3.00;2.90;;;20.40;47.30;;;;;;4960208;28;20451;-83
2023/03/19 03:16:40;;;;;;;2.67;2.47;;;20.40;47.30;;;;;;4960116;28;20485;-82
2023/03/19 03:19:11;;;;;;;2.97;2.77;;;20.40;47.40;;;;;;4963851;28;20451;-83
2023/03/19 03:21:39;;;;;;;2.67;2.20;;;20.40;47.20;;;;;;4964571;28;20451;-83
2023/03/19 03:24:08;;;;;;;2.37;2.27;;;20.40;47.30;;;;;;4964696;28;20473;-83
2023/03/19 03:26:37;;;;;;;2.93;2.73;;;20.40;47.40;;;;;;4957465;28;20471;-82
2023/03/19 03:29:05;;;;;;;2.33;2.23;;;20.40;47.40;;;;;;4957133;28;20459;-83
2023/03/19 03:31:34;;;;;;;2.70;2.50;;;20.40;47.40;;;;;;4954280;29;20460;-82
2023/03/19 03:34:02;;;;;;;2.70;2.50;;;20.40;47.30;;;;;;4955145;28;20482;-83
2023/03/19 03:36:32;;;;;;;2.30;2.10;;;20.40;47.40;;;;;;4962169;28;20559;-82
2023/03/19 03:39:01;;;;;;;2.23;2.13;;;20.40;47.20;;;;;;4961922;28;20469;-83
2023/03/19 03:41:29;;;;;;;2.50;2.40;;;20.30;47.30;;;;;;4960667;28;21003;-82
2023/03/19 03:43:57;;;;;;;2.90;2.70;;;20.30;47.30;;;;;;4957852;28;20452;-82
2023/03/19 03:46:25;;;;;;;2.43;2.33;;;20.30;47.20;;;;;;4956492;28;20546;-82
2023/03/19 03:48:53;;;;;;;3.73;2.73;;;20.30;47.30;;;;;;4955384;28;20495;-82
2023/03/19 03:51:21;;;;;;;2.83;2.63;;;20.30;47.30;;;;;;4960698;28;20486;-82
2023/03/19 03:53:50;;;;;;;2.83;2.63;;;20.30;47.30;;;;;;4959910;29;20455;-82
2023/03/19 03:56:19;;;;;;;2.80;2.60;;;20.30;47.40;;;;;;4960021;29;20483;-82
2023/03/19 03:58:47;;;;;;;2.77;2.60;;;20.30;47.30;;;;;;4958124;28;20459;-83
2023/03/19 04:01:15;;;;;;;2.60;2.50;;;20.30;47.40;;;;;;4960313;28;20459;-83
2023/03/19 04:03:44;;;;;;;2.00;1.90;;;20.30;47.40;;;;;;4958297;28;20535;-83
2023/03/19 04:06:13;;;;;;;3.03;2.83;;;20.30;47.40;;;;;;4954458;28;20467;-83
2023/03/19 04:08:41;;;;;;;2.97;2.77;;;20.30;47.50;;;;;;4959606;28;20466;-82
2023/03/19 04:11:11;;;;;;;2.70;2.60;;;20.30;47.30;;;;;;4959926;29;20462;-83
2023/03/19 04:13:39;;;;;;;4.10;2.80;;;20.30;47.40;;;;;;4953450;28;20457;-82
2023/03/19 04:16:08;;;;;;;2.60;2.50;;;20.30;47.40;;;;;;4958115;28;20486;-83
2023/03/19 04:18:36;;;;;;;3.30;2.40;;;20.20;47.30;;;;;;4957235;28;20538;-82
2023/03/19 04:21:04;;;;;;;2.97;2.77;;;20.20;47.40;;;;;;4955438;29;20454;-82
2023/03/19 04:23:33;;;;;;;3.93;3.17;;;20.20;47.50;;;;;;4959283;28;20470;-82
2023/03/19 04:26:01;;;;;;;2.87;2.67;;;20.20;47.30;;;;;;4966904;28;20482;-83
2023/03/19 04:28:30;;;;;;;2.50;2.37;;;20.20;47.40;;;;;;4962069;28;20475;-82
2023/03/19 04:30:59;;;;;;;2.77;2.63;;;20.20;47.40;;;;;;4959166;28;20443;-83
2023/03/19 04:33:28;;;;;;;2.37;2.27;;;20.20;47.50;;;;;;4959471;28;20454;-83
2023/03/19 04:35:56;;;;;;;3.20;2.93;;;20.20;47.40;;;;;;4962061;28;20570;-83
2023/03/19 04:38:26;;;;;;;3.60;2.73;;;20.20;47.30;;;;;;4961592;28;21055;-83
2023/03/19 04:40:54;;;;;;;3.10;2.80;;;20.10;47.40;;;;;;4956732;29;20447;-83
2023/03/19 04:43:22;;;;;;;2.50;2.40;;;20.20;47.40;;;;;;4956506;29;20459;-82
2023/03/19 04:45:52;;;;;;;2.80;2.53;;;20.20;47.30;;;;;;4955635;28;20475;-83
2023/03/19 04:48:20;;;;;;;2.90;2.50;;;20.20;47.40;;;;;;4962091;28;20591;-83
2023/03/19 04:50:51;;;;;;;2.63;2.43;;;20.20;47.40;;;;;;4958806;28;20447;-83
2023/03/19 04:53:20;;;;;;;2.30;2.20;;;20.20;47.40;;;;;;4959898;28;20457;-83
2023/03/19 04:55:48;;;;;;;2.47;2.37;;;20.20;47.40;;;;;;4960086;28;20573;-82
2023/03/19 04:58:16;;;;;;;3.33;3.07;;;20.20;47.30;;;;;;4957947;28;20477;-82
2023/03/19 05:00:46;;;;;;;3.10;2.83;;;20.20;47.40;;;;;;4957850;28;20494;-82
2023/03/19 05:03:15;;;;;;;2.93;2.70;;;20.10;47.40;;;;;;4957568;28;20457;-82
2023/03/19 05:05:43;;;;;;;2.80;2.70;;;20.10;47.40;;;;;;4955959;28;20467;-82
2023/03/19 05:08:12;;;;;;;2.67;2.57;;;20.10;47.50;;;;;;4958930;28;20510;-83
2023/03/19 05:10:40;;;;;;;2.67;2.57;;;20.10;47.60;;;;;;4956861;28;20465;-83
2023/03/19 05:13:08;;;;;;;3.00;2.90;;;20.10;47.60;;;;;;4953992;29;20456;-82
2023/03/19 05:15:37;;;;;;;3.10;2.67;;;20.10;47.60;;;;;;4954662;29;20450;-82
2023/03/19 05:18:06;;;;;;;2.70;2.50;;;20.10;47.70;;;;;;4959231;28;20489;-83
2023/03/19 05:20:36;;;;;;;2.70;2.50;;;20.10;47.70;;;;;;4961161;28;20944;-82
2023/03/19 05:23:05;;;;;;;2.50;2.40;;;20.10;47.60;;;;;;4963083;28;20467;-83
2023/03/19 05:25:34;;;;;;;2.77;2.57;;;20.10;47.70;;;;;;4960595;28;20526;-82
2023/03/19 05:28:02;;;;;;;2.30;2.20;;;20.10;47.50;;;;;;4959591;29;20451;-83
2023/03/19 05:30:37;;;;;;;3.43;2.93;;;20.00;47.70;;;;;;4954200;28;20455;-82
2023/03/19 05:33:05;;;;;;;2.57;2.47;;;20.10;47.60;;;;;;4961152;28;20469;-81
2023/03/19 05:35:34;;;;;;;2.77;2.67;;;20.00;47.60;;;;;;4960024;28;20455;-81
2023/03/19 05:38:04;;;;;;;2.70;2.60;;;20.00;47.50;;;;;;4960852;28;20471;-82
2023/03/19 05:40:33;;;;;;;3.13;2.93;;;20.00;47.60;;;;;;4961481;28;20465;-82
2023/03/19 05:43:02;;;;;;;2.63;2.53;;;20.00;47.60;;;;;;4963307;28;20447;-83
2023/03/19 05:45:30;;;;;;;2.77;2.67;;;20.00;47.60;;;;;;4961107;28;20525;-82
2023/03/19 05:47:59;;;;;;;3.10;2.80;;;20.00;47.40;;;;;;4960981;28;20465;-82
2023/03/19 05:50:27;;;;;;;2.80;2.60;;;20.00;47.50;;;;;;4961318;28;20455;-82
2023/03/19 05:52:55;;;;;;;3.53;2.30;;;20.00;47.70;;;;;;4960283;28;20455;-83
2023/03/19 05:55:25;;;;;;;3.43;3.13;;;20.00;47.50;;;;;;4958220;28;20459;-82
2023/03/19 05:57:52;;;;;;;2.70;2.50;;;20.00;47.60;;;;;;4959058;29;20471;-82
2023/03/19 06:00:21;;;;;;;2.10;2.00;;;20.00;47.60;;;;;;4960077;29;20454;-82
2023/03/19 06:02:50;;;;;;;2.77;2.67;;;20.00;47.50;;;;;;4959181;28;20455;-82
2023/03/19 06:05:18;;;;;;;2.47;2.37;;;20.00;47.50;;;;;;4960124;28;20462;-82
2023/03/19 06:07:46;;;;;;;2.83;2.67;;;20.10;47.50;;;;;;4960005;28;20506;-83
2023/03/19 06:10:14;;;;;;;2.97;2.77;;;20.10;47.40;;;;;;4958677;28;20457;-82
2023/03/19 06:12:44;;;;;;;3.53;3.10;;;20.00;47.60;;;;;;4956004;28;20465;-82
2023/03/19 06:15:12;;;;;;;3.80;3.33;;;20.00;47.60;;;;;;4958110;29;20455;-82
2023/03/19 06:17:40;;;;;;;3.40;3.10;;;20.10;47.50;;;;;;4953622;29;20480;-81
2023/03/19 06:20:10;;;;;;;4.37;3.20;;;20.00;47.50;;;;;;4957614;28;21278;-82
2023/03/19 06:22:38;;;;;;;3.37;3.07;;;20.00;47.60;;;;;;4954563;28;20454;-82
2023/03/19 06:25:07;;;;;;;3.13;2.93;;;20.00;47.50;;;;;;4958758;29;20463;-82
2023/03/19 06:27:35;;;;;;;3.90;3.10;;;20.00;47.50;;;;;;4956615;28;20485;-82
2023/03/19 06:30:06;;;;;;;3.63;3.33;;;20.00;47.60;;;;;;4960921;28;20469;-83
2023/03/19 06:32:34;;;;;;;2.90;2.70;;;20.00;47.60;;;;;;4961500;28;20455;-82
2023/03/19 06:35:02;;;;;;;3.90;2.80;;;20.00;47.60;;;;;;4959985;29;20460;-82
2023/03/19 06:37:30;;;;;;;3.30;3.10;;;20.00;47.60;;;;;;4960033;28;20479;-83
2023/03/19 06:39:58;;;;;;;3.10;2.90;;;20.00;47.60;;;;;;4953705;29;20459;-82
2023/03/19 06:42:26;;;;;;;3.67;3.47;;;20.00;47.60;;;;;;4959180;28;20463;-83
2023/03/19 06:44:54;;;;;;;3.83;3.17;;;20.10;47.60;;;;;;4955698;28;20460;-82
2023/03/19 06:47:24;;;;;;;3.20;3.00;;;20.10;47.60;;;;;;4955928;29;20479;-83
2023/03/19 06:49:52;;;;;;;3.50;3.20;;;20.10;47.60;;;;;;4958059;28;20463;-83
2023/03/19 06:52:21;;;;;;;3.13;2.80;;;20.10;47.40;;;;;;4956624;28;20459;-82
2023/03/19 06:54:49;;;;;;;3.67;3.40;;;20.10;47.70;;;;;;4961575;28;20459;-82
2023/03/19 06:57:17;;;;;;;3.23;2.90;;;20.10;47.50;;;;;;4959326;28;20478;-82
2023/03/19 06:59:45;;;;;;;3.40;3.20;;;20.10;47.60;;;;;;4959702;28;20466;-82
2023/03/19 07:02:14;;;;;;;3.37;3.10;;;20.20;47.50;;;;;;4954254;29;20458;-82
2023/03/19 07:04:43;;;;;;;3.03;2.77;;;20.10;47.50;;;;;;4959927;28;20459;-82
2023/03/19 07:07:12;;;;;;;4.23;2.93;;;20.20;47.50;;;;;;4959925;29;20468;-82
2023/03/19 07:09:40;;;;;;;3.40;3.10;;;20.20;47.50;;;;;;4949476;28;20511;-82
2023/03/19 07:12:08;;;;;;;2.87;2.77;;;20.20;47.50;;;;;;4958884;28;20539;-82
2023/03/19 07:14:36;;;;;;;3.63;3.17;;;20.20;47.30;;;;;;4960470;28;20535;-82
2023/03/19 07:17:05;;;;;;;3.00;2.80;;;20.20;47.40;;;;;;4958653;28;20521;-81
2023/03/19 07:19:35;;;;;;;3.10;2.90;;;20.20;47.40;;;;;;4950865;29;20502;-83
2023/03/19 07:22:05;;;;;;;3.43;3.20;;;20.20;47.40;;;;;;4952056;28;20474;-83
2023/03/19 07:24:33;;;;;;;2.80;2.60;;;20.30;47.30;;;;;;4958013;28;20451;-82
2023/03/19 07:27:01;;;;;;;5.57;3.63;;;20.30;47.40;;;;;;4957999;29;20474;-83
2023/03/19 07:29:30;;;;;;;3.97;2.90;;;20.30;47.40;;;;;;4959026;28;20460;-83
2023/03/19 07:31:58;;;;;;;3.33;3.03;;;20.40;47.50;;;;;;4966763;28;20486;-82
2023/03/19 07:34:26;;;;;;;3.40;3.10;;;20.40;47.30;;;;;;4958984;28;20542;-83
2023/03/19 07:36:54;;;;;;;3.43;3.13;;;20.40;47.20;;;;;;4953091;28;20498;-83
2023/03/19 07:39:24;;;;;;;3.33;3.13;;;20.50;47.30;;;;;;4958392;28;20483;-82
2023/03/19 07:41:52;;;;;;;3.27;3.00;;;20.50;47.10;;;;;;4959879;28;20458;-82
2023/03/19 07:44:21;;;;;;;3.73;3.40;;;20.50;47.40;;;;;;4961761;29;20462;-82
2023/03/19 07:46:49;;;;;;;3.77;3.40;;;20.60;47.30;;;;;;4961083;28;20475;-82
2023/03/19 07:49:17;;;;;;;4.67;3.20;;;20.60;47.30;;;;;;4953762;28;20462;-82
2023/03/19 07:51:45;;;;;;;3.07;2.90;;;20.70;47.10;;;;;;4959886;28;20526;-83
2023/03/19 07:54:13;;;;;;;3.70;3.07;;;20.70;47.20;;;;;;4957320;28;20463;-83
2023/03/19 07:56:45;;;;;;;3.20;3.00;;;20.70;47.20;;;;;;4961113;28;21074;-82
2023/03/19 07:59:13;;;;;;;3.27;3.07;;;20.70;47.20;;;;;;4959510;28;20481;-83
2023/03/19 08:01:41;;;;;;;3.10;2.80;;;20.80;47.10;;;;;;4959395;28;20454;-82
2023/03/19 08:04:09;;;;;;;3.33;3.13;;;20.80;47.20;;;;;;4960113;28;20542;-83
2023/03/19 08:06:38;;;;;;;3.33;3.03;;;20.80;46.90;;;;;;4961738;28;20475;-82
2023/03/19 08:09:06;;;;;;;3.23;3.03;;;20.90;47.00;;;;;;4959231;28;20490;-83
2023/03/19 08:11:35;;;;;;;4.77;4.37;;;21.00;47.10;;;;;;4960213;28;20530;-82
2023/03/19 08:14:05;;;;;;;4.90;4.50;;;21.10;47.10;;;;;;4958343;28;20450;-83
2023/03/19 08:16:33;;;;;;;5.07;4.67;;;21.20;47.20;;;;;;4957493;28;20482;-83
2023/03/19 08:19:01;;;;;;;7.50;5.27;;;21.30;47.20;;;;;;4958328;28;20529;-84
2023/03/19 08:21:32;;;;;;;7.10;6.30;;;21.50;47.20;;;;;;4957031;28;20469;-82
2023/03/19 08:24:00;;;;;;;7.20;5.40;;;21.60;47.20;;;;;;4958093;28;20463;-83
2023/03/19 08:26:32;;;;;;;7.33;5.53;;;21.80;47.30;;;;;;4960435;28;20479;-83
2023/03/19 08:29:00;;;;;;;6.83;5.63;;;21.90;47.20;;;;;;4959903;28;20466;-84
2023/03/19 08:31:30;;;;;;;6.87;5.60;;;21.90;47.20;;;;;;4961194;28;20451;-83
2023/03/19 08:33:59;;;;;;;6.87;5.80;;;21.90;47.20;;;;;;4960228;28;20530;-82
2023/03/19 08:36:27;;;;;;;7.10;6.10;;;21.90;47.20;;;;;;4959151;28;20536;-83
2023/03/19 08:38:55;;;;;;;7.93;5.73;;;21.90;47.30;;;;;;4958907;28;20467;-83
2023/03/19 08:41:23;;;;;;;9.23;6.17;;;21.90;47.30;;;;;;4960065;28;20451;-83
2023/03/19 08:43:51;;;;;;;7.20;6.50;;;21.80;47.30;;;;;;4955494;28;20459;-83
2023/03/19 08:46:19;;;;;;;8.03;6.43;;;21.80;47.30;;;;;;4961401;28;20485;-83
2023/03/19 08:48:49;;;;;;;7.30;6.00;;;21.80;47.60;;;;;;4961639;28;20522;-83
2023/03/19 08:51:17;;;;;;;6.77;6.07;;;21.80;47.40;;;;;;4963558;28;20455;-83
2023/03/19 08:53:46;;;;;;;8.10;6.13;;;21.80;47.60;;;;;;4957005;29;20461;-84
2023/03/19 08:56:14;;;;;;;6.83;6.17;;;21.80;47.50;;;;;;4960822;28;20471;-83
2023/03/19 08:58:43;;;;;;;8.33;6.70;;;21.80;47.40;;;;;;4956819;28;20474;-83
2023/03/19 09:01:12;;;;;;;9.63;6.63;;;21.80;47.40;;;;;;4957445;29;20451;-83
2023/03/19 09:03:41;;;;;;;8.63;6.33;;;21.80;47.50;;;;;;4960397;29;20466;-83
2023/03/19 09:06:11;;;;;;;7.83;6.50;;;21.90;47.40;;;;;;4958561;29;20559;-83
2023/03/19 09:08:40;;;;;;;7.90;6.17;;;21.80;47.40;;;;;;4957871;28;20459;-83
2023/03/19 09:11:09;;;;;;;7.63;6.67;;;21.90;47.40;;;;;;4958048;28;20455;-84
2023/03/19 09:13:37;;;;;;;8.83;6.63;;;21.90;47.30;;;;;;4955189;28;20458;-84
2023/03/19 09:16:07;;;;;;;7.43;6.50;;;22.00;47.40;;;;;;4954829;28;20499;-82
2023/03/19 09:18:35;;;;;;;7.90;6.50;;;22.10;47.40;;;;;;4957324;28;20484;-84
2023/03/19 09:21:03;;;;;;;7.43;6.43;;;22.10;47.80;;;;;;4960443;28;20498;-87
2023/03/19 09:23:33;;;;;;;9.00;6.93;;;22.10;47.10;;;;;;4952611;29;20563;-84
2023/03/19 09:26:01;;;;;;;8.47;6.67;;;22.10;47.30;;;;;;4951968;28;20493;-84
2023/03/19 09:28:29;;;;;;;9.63;7.93;;;22.20;47.30;;;;;;4954519;29;20469;-83
2023/03/19 09:30:57;;;;;;;8.07;6.77;;;22.20;47.30;;;;;;4956278;28;20457;-81
2023/03/19 09:33:25;;;;;;;8.23;6.53;;;22.30;47.20;;;;;;4951761;29;20440;-84
2023/03/19 09:35:53;;;;;;;8.57;6.57;;;22.30;47.20;;;;;;4955620;28;20486;-84
2023/03/19 09:38:22;;;;;;;9.33;7.13;;;22.40;47.10;;;;;;4955775;29;20483;-84
2023/03/19 09:40:55;;;;;;;9.20;7.30;;;22.40;47.20;;;;;;4949620;28;20474;-84
2023/03/19 09:43:39;;;;;;;9.03;7.27;;;22.50;47.00;;;;;;4958149;28;20469;-83
2023/03/19 09:46:11;;;;;;;8.77;6.90;;;22.50;47.00;;;;;;4958285;28;20566;-84
2023/03/19 09:48:42;;;;;;;8.10;7.30;;;22.50;46.90;;;;;;4947565;28;20514;-84
2023/03/19 09:51:14;;;;;;;9.10;7.10;;;22.50;47.10;;;;;;4951026;28;20455;-84
2023/03/19 09:53:46;;;;;;;9.13;6.90;;;22.40;47.10;;;;;;4955340;28;20545;-85
2023/03/19 09:56:18;;;;;;;7.90;6.93;;;22.40;47.10;;;;;;4953206;28;20558;-84
2023/03/19 09:58:46;;;;;;;8.87;6.90;;;22.30;47.10;;;;;;4957132;28;20458;-83
2023/03/19 10:01:25;;;;;;;8.13;6.83;;;22.40;47.30;;;;;;4956966;28;20491;-84
2023/03/19 10:04:06;;;;;;;8.30;6.70;;;22.30;47.20;;;;;;4955346;28;20455;-84
2023/03/19 10:06:35;;;;;;;8.13;6.83;;;22.30;47.30;;;;;;4954560;29;20557;-83
2023/03/19 10:09:25;;;;;;;9.07;6.60;;;22.40;47.40;;;;;;4953226;28;20463;-83
2023/03/19 10:12:11;;;;;;;8.83;6.17;;;22.30;47.30;;;;;;4950953;28;20448;-85
2023/03/19 10:14:51;;;;;;;6.70;6.03;;;22.40;47.30;;;;;;4955247;28;20463;-84
2023/03/19 10:17:20;;;;;;;8.10;6.70;;;22.40;47.40;;;;;;4955782;28;20476;-85
2023/03/19 10:19:50;;;;;;;6.90;6.20;;;22.30;47.40;;;;;;4957800;28;20555;-84
2023/03/19 10:22:20;;;;;;;7.10;6.40;;;22.40;47.40;;;;;;4955534;28;20451;-84
2023/03/19 10:24:48;;;;;;;9.10;6.70;;;22.50;47.40;;;;;;4958346;28;20451;-84
2023/03/19 10:27:19;;;;;;;7.97;7.17;;;22.50;47.20;;;;;;4956311;29;20485;-84
2023/03/19 10:29:51;;;;;;;8.90;7.10;;;22.50;47.20;;;;;;4959395;28;21019;-84
2023/03/19 10:32:21;;;;;;;11.10;7.73;;;22.50;47.30;;;;;;4953969;29;20465;-82
2023/03/19 10:34:49;;;;;;;10.20;6.87;;;22.40;47.30;;;;;;4964425;28;20467;-84
2023/03/19 10:37:19;;;;;;;8.00;7.00;;;22.40;47.30;;;;;;4964456;28;20554;-83
2023/03/19 10:39:48;;;;;;;8.40;7.23;;;22.40;47.30;;;;;;4965871;28;20471;-82
2023/03/19 10:42:35;;;;;;;10.87;8.17;;;22.40;47.30;;;;;;4963331;28;20463;-84
2023/03/19 10:45:05;;;;;;;15.97;11.70;;;22.40;47.40;;;;;;4950580;28;20454;-82
2023/03/19 10:47:37;;;;;;;18.67;14.40;;;20.80;48.80;;;;;;4959683;28;20478;-79
2023/03/19 10:50:06;;;;;;;20.70;16.00;;;19.30;53.00;;;;;;4957437;28;20466;-80
2023/03/19 10:52:35;;;;;;;23.07;17.13;;;18.70;53.90;;;;;;4960709;28;20455;-81
2023/03/19 10:55:12;;;;;;;22.80;17.13;;;17.70;55.70;;;;;;4958809;28;20465;-80
2023/03/19 10:57:43;;;;;;;23.43;17.47;;;17.50;57.50;;;;;;4961734;29;20541;-79
2023/03/19 11:00:17;;;;;;;27.43;19.57;;;17.40;57.60;;;;;;4960768;28;20475;-79
2023/03/19 11:02:47;;;;;;;26.17;19.17;;;17.70;57.60;;;;;;4958728;28;20458;-85
2023/03/19 11:05:25;;;;;;;24.50;16.77;;;17.90;58.50;;;;;;4957577;28;20471;-83
2023/03/19 11:07:57;;;;;;;24.60;15.70;;;19.00;58.20;;;;;;4959785;29;20455;-84
2023/03/19 11:10:29;;;;;;;21.23;14.83;;;19.80;56.00;;;;;;4961966;29;20454;-83
2023/03/19 11:13:04;;;;;;;18.60;13.47;;;20.60;54.50;;;;;;4960963;28;20455;-85
2023/03/19 11:15:34;;;;;;;18.13;13.13;;;21.60;53.30;;;;;;4962870;28;20461;-86
2023/03/19 11:18:06;;;;;;;16.13;11.13;;;22.30;51.50;;;;;;4958803;28;20454;-81
2023/03/19 11:20:36;;;;;;;13.50;11.13;;;22.60;50.00;;;;;;4963888;28;20558;-84
2023/03/19 11:23:10;;;;;;;13.03;10.57;;;22.70;49.50;;;;;;4962281;28;20463;-82
2023/03/19 11:25:40;;;;;;;13.13;10.40;;;22.80;49.30;;;;;;4956692;29;20455;-80
2023/03/19 11:28:12;;;;;;;16.10;8.13;;;22.90;49.00;;;;;;4951882;28;20473;-79
2023/03/19 11:30:48;;;;;;;11.27;7.40;;;23.20;50.00;;;;;;4947570;28;20522;-79
2023/03/19 11:33:37;;;;;;;13.73;7.37;;;23.40;50.10;;;;;;4958698;29;20463;-78
2023/03/19 11:36:09;;;;;;;14.53;7.00;;;23.60;49.90;;;;;;4957628;28;20471;-79
2023/03/19 11:38:41;;;;;;;11.10;7.57;;;23.80;49.70;;;;;;4959456;28;20463;-79
2023/03/19 11:41:13;;;;;;;10.37;6.93;;;24.00;49.60;;;;;;4959493;28;20471;-79
2023/03/19 11:43:49;;;;;;;17.50;9.30;;;24.10;50.10;;;;;;4953412;29;20464;-79
2023/03/19 11:46:23;;;;;;;42.30;23.23;;;24.40;49.20;;;;;;4959519;28;20483;-79
2023/03/19 11:49:12;;;;;;;47.53;24.60;;;25.00;49.80;;;;;;4957866;28;20470;-79
2023/03/19 11:51:41;;;;;;;34.63;22.90;;;26.20;48.80;;;;;;4949601;29;20443;-78
2023/03/19 11:54:13;;;;;;;24.40;18.00;;;27.60;48.40;;;;;;4948155;29;20435;-79
2023/03/19 11:56:43;;;;;;;29.10;18.03;;;28.90;45.30;;;;;;4950712;29;20445;-78
2023/03/19 11:59:32;;;;;;;29.23;17.90;;;29.70;41.90;;;;;;4952103;29;20448;-79
2023/03/19 12:02:17;;;;;;;35.50;17.70;;;28.90;42.10;;;;;;4950966;28;20449;-77
2023/03/19 12:04:52;;;;;;;27.10;16.97;;;28.90;44.20;;;;;;4951965;28;20467;-79
2023/03/19 12:07:23;;;;;;;26.87;16.80;;;29.20;47.10;;;;;;4951782;28;20477;-77
2023/03/19 12:09:56;;;;;;;25.43;16.40;;;29.40;43.90;;;;;;4953325;29;20426;-79
2023/03/19 12:12:26;;;;;;;22.10;14.90;;;28.80;44.50;;;;;;4946669;29;20429;-77
2023/03/19 12:15:04;;;;;;;32.03;16.50;;;28.20;45.40;;;;;;4948061;29;20454;-78
2023/03/19 12:17:44;;;;;;;28.90;14.50;;;27.70;46.40;;;;;;4951195;29;20458;-78
2023/03/19 12:20:31;;;;;;;28.93;15.83;;;27.50;47.30;;;;;;4951731;28;20439;-79
2023/03/19 12:23:03;;;;;;;31.27;15.40;;;27.20;47.50;;;;;;4946460;29;20459;-78
2023/03/19 12:25:42;;;;;;;18.77;13.87;;;26.90;48.00;;;;;;4948460;28;20463;-78
2023/03/19 12:28:13;;;;;;;23.10;15.40;;;26.60;48.70;;;;;;4947918;28;20453;-78
2023/03/19 12:30:44;;;;;;;19.10;14.63;;;26.60;49.60;;;;;;4954954;28;20474;-78
2023/03/19 12:33:23;;;;;;;20.00;14.23;;;27.20;51.50;;;;;;4951016;29;20520;-80
2023/03/19 12:35:55;;;;;;;19.13;12.80;;;28.70;47.00;;;;;;4954136;29;20453;-78
2023/03/19 12:38:24;;;;;;;20.67;13.80;;;28.70;45.20;;;;;;4952298;29;20438;-79
2023/03/19 12:40:53;;;;;;;17.67;13.50;;;28.50;45.00;;;;;;4973183;28;20429;-79
2023/03/19 12:43:23;;;;;;;19.37;13.20;;;28.30;45.30;;;;;;4966795;28;20498;-80
2023/03/19 12:45:57;;;;;;;26.23;13.70;;;28.10;45.10;;;;;;4973233;29;20445;-81
2023/03/19 12:48:27;;;;;;;21.10;12.03;;;28.00;45.30;;;;;;4972739;28;20518;-81
2023/03/19 12:50:57;;;;;;;19.47;12.40;;;28.00;45.20;;;;;;4966887;28;20439;-81
2023/03/19 12:53:31;;;;;;;17.73;12.03;;;27.70;45.10;;;;;;4969309;28;20455;-80
2023/03/19 12:56:01;;;;;;;20.00;12.63;;;27.70;44.90;;;;;;4969778;28;20516;-81